Time;durP1;ratioP1;P1;durP2;ratioP2;P2;SDS_P1;SDS_P2;PMS_P1;PMS_P2;Temp;Humidity;BMP_temperature;BMP_pressure;BME280_temperature;BME280_humidity;BME280_pressure;Samples;Min_cycle;Max_cycle;Signal;HPM_P1;HPM_P2
2021/07/17 00:01:28;;;;;;;18.50;15.47;;;22.30;99.90;;;;;;5100634;28;20417;-63
2021/07/17 00:03:55;;;;;;;20.13;17.90;;;22.30;99.90;;;;;;5103936;28;20449;-63
2021/07/17 00:06:24;;;;;;;17.23;15.20;;;22.20;99.90;;;;;;5104577;28;20443;-63
2021/07/17 00:08:51;;;;;;;17.80;15.27;;;21.90;99.90;;;;;;5106703;28;20418;-63
2021/07/17 00:11:18;;;;;;;17.27;15.60;;;21.60;99.90;;;;;;5104456;28;20444;-63
2021/07/17 00:13:47;;;;;;;21.47;16.17;;;21.60;99.90;;;;;;5101856;28;20576;-63
2021/07/17 00:16:18;;;;;;;16.27;14.77;;;21.40;99.90;;;;;;5102744;28;20483;-63
2021/07/17 00:18:46;;;;;;;16.07;14.50;;;21.30;99.90;;;;;;5104875;28;20440;-63
2021/07/17 00:21:13;;;;;;;16.30;14.60;;;21.20;99.90;;;;;;5099283;28;20498;-63
2021/07/17 00:23:40;;;;;;;16.10;14.60;;;21.20;99.90;;;;;;5103217;28;20550;-63
2021/07/17 00:26:06;;;;;;;20.67;15.63;;;21.20;99.90;;;;;;5102724;28;20436;-63
2021/07/17 00:28:34;;;;;;;17.07;15.47;;;21.10;99.90;;;;;;5105168;28;20489;-63
2021/07/17 00:31:01;;;;;;;17.83;14.77;;;21.10;99.90;;;;;;5102270;28;20411;-64
2021/07/17 00:33:28;;;;;;;15.47;14.00;;;21.10;99.90;;;;;;5100314;28;20436;-63
2021/07/17 00:35:55;;;;;;;17.50;15.20;;;21.00;99.90;;;;;;5102829;28;20416;-63
2021/07/17 00:38:22;;;;;;;18.27;14.50;;;20.90;99.90;;;;;;5102507;28;20746;-63
2021/07/17 00:40:49;;;;;;;16.53;14.87;;;20.80;99.90;;;;;;5103006;28;20473;-63
2021/07/17 00:43:16;;;;;;;16.30;14.80;;;20.70;99.90;;;;;;5105524;28;20450;-62
2021/07/17 00:45:43;;;;;;;18.50;13.80;;;20.80;99.90;;;;;;5101677;28;20441;-63
2021/07/17 00:48:11;;;;;;;16.07;14.57;;;20.80;99.90;;;;;;5101931;28;20485;-64
2021/07/17 00:50:38;;;;;;;17.37;15.03;;;20.70;99.90;;;;;;5102296;28;20450;-63
2021/07/17 00:53:05;;;;;;;16.17;13.80;;;20.70;99.90;;;;;;5105228;28;20489;-64
2021/07/17 00:55:33;;;;;;;15.07;13.60;;;20.90;99.90;;;;;;5110549;28;20452;-62
2021/07/17 00:58:02;;;;;;;15.03;13.20;;;20.70;99.90;;;;;;5100986;28;20444;-63
2021/07/17 01:00:29;;;;;;;14.73;13.53;;;20.90;99.90;;;;;;5104802;28;20414;-63
2021/07/17 01:03:03;;;;;;;17.20;15.47;;;20.90;99.90;;;;;;5113800;28;20413;-62
2021/07/17 01:05:30;;;;;;;15.77;14.20;;;20.90;99.90;;;;;;5104746;28;20509;-63
2021/07/17 01:07:58;;;;;;;16.73;14.07;;;20.70;99.90;;;;;;5109133;28;20442;-64
2021/07/17 01:10:25;;;;;;;19.40;14.80;;;20.80;99.90;;;;;;5110006;28;20442;-63
2021/07/17 01:12:52;;;;;;;18.83;15.23;;;20.80;99.90;;;;;;5105225;28;20470;-64
2021/07/17 01:15:20;;;;;;;15.20;13.47;;;20.70;99.90;;;;;;5104113;28;20414;-63
2021/07/17 01:17:47;;;;;;;15.43;13.80;;;20.70;99.90;;;;;;5100506;28;20400;-63
2021/07/17 01:20:17;;;;;;;15.77;14.23;;;20.80;99.90;;;;;;5106913;28;20521;-61
2021/07/17 01:22:44;;;;;;;18.33;14.63;;;20.80;99.90;;;;;;5107616;28;20485;-63
2021/07/17 01:25:15;;;;;;;17.00;13.53;;;20.80;99.90;;;;;;5104056;28;20414;-63
2021/07/17 01:27:42;;;;;;;17.23;14.93;;;20.80;99.90;;;;;;5106994;28;20676;-63
2021/07/17 01:30:16;;;;;;;14.87;13.23;;;20.80;99.90;;;;;;5100702;28;20406;-63
2021/07/17 01:32:43;;;;;;;15.90;14.20;;;20.60;99.90;;;;;;5099200;28;20418;-63
2021/07/17 01:35:10;;;;;;;23.90;17.50;;;20.50;99.90;;;;;;5102385;28;20451;-61
2021/07/17 01:37:37;;;;;;;16.17;14.47;;;20.40;99.90;;;;;;5101944;28;20421;-63
2021/07/17 01:40:06;;;;;;;15.37;13.80;;;20.40;99.90;;;;;;5107878;28;20447;-63
2021/07/17 01:42:37;;;;;;;17.40;13.20;;;20.40;99.90;;;;;;5101675;28;20416;-63
2021/07/17 01:45:06;;;;;;;15.97;14.40;;;20.40;99.90;;;;;;5101919;28;20497;-62
2021/07/17 01:47:36;;;;;;;17.03;14.97;;;20.30;99.90;;;;;;5102003;28;20674;-64
2021/07/17 01:50:07;;;;;;;15.17;13.57;;;20.40;99.90;;;;;;5105130;28;20411;-63
2021/07/17 01:52:34;;;;;;;17.33;14.27;;;20.40;99.90;;;;;;5106780;28;20414;-62
2021/07/17 01:55:04;;;;;;;22.07;15.33;;;20.50;99.90;;;;;;5106109;28;20485;-62
2021/07/17 01:57:31;;;;;;;17.80;14.73;;;20.50;99.90;;;;;;5101392;28;20463;-62
2021/07/17 01:59:58;;;;;;;17.10;15.37;;;20.50;99.90;;;;;;5097326;28;20615;-62
2021/07/17 02:02:25;;;;;;;20.97;17.67;;;20.50;99.90;;;;;;5107219;28;20417;-62
2021/07/17 02:04:52;;;;;;;17.80;15.90;;;20.40;99.90;;;;;;5109065;28;20414;-63
2021/07/17 02:07:19;;;;;;;22.70;19.97;;;20.20;99.90;;;;;;5102845;28;20479;-64
2021/07/17 02:09:47;;;;;;;29.23;24.07;;;20.20;99.90;;;;;;5106542;28;20618;-63
2021/07/17 02:12:16;;;;;;;28.90;24.60;;;20.00;99.90;;;;;;5099222;28;20690;-62
2021/07/17 02:14:43;;;;;;;28.00;24.67;;;19.90;99.90;;;;;;5106747;28;20469;-63
2021/07/17 02:17:10;;;;;;;29.20;24.37;;;19.80;99.90;;;;;;5102228;28;20587;-63
2021/07/17 02:19:37;;;;;;;29.13;21.67;;;19.80;99.90;;;;;;5113713;28;20416;-63
2021/07/17 02:22:04;;;;;;;24.30;20.70;;;19.80;99.90;;;;;;5103645;28;20444;-63
2021/07/17 02:24:31;;;;;;;22.07;19.87;;;19.90;99.90;;;;;;5104671;28;20418;-62
2021/07/17 02:26:58;;;;;;;27.00;20.97;;;19.90;99.90;;;;;;5104484;28;20451;-62
2021/07/17 02:29:25;;;;;;;22.67;20.27;;;19.70;99.90;;;;;;5104552;28;20418;-63
2021/07/17 02:31:52;;;;;;;20.27;18.27;;;19.80;99.90;;;;;;5101740;28;20459;-63
2021/07/17 02:34:20;;;;;;;19.87;17.50;;;19.90;99.90;;;;;;5106334;28;20704;-62
2021/07/17 02:36:47;;;;;;;18.23;16.40;;;19.90;99.90;;;;;;5105509;28;20443;-63
2021/07/17 02:39:14;;;;;;;25.97;16.97;;;19.90;99.90;;;;;;5101371;28;20791;-63
2021/07/17 02:41:41;;;;;;;20.10;18.07;;;20.00;99.90;;;;;;5104222;28;20459;-63
2021/07/17 02:44:08;;;;;;;18.50;16.57;;;19.80;99.90;;;;;;5104476;28;20443;-63
2021/07/17 02:46:36;;;;;;;17.80;16.00;;;19.80;99.90;;;;;;5109438;28;20413;-64
2021/07/17 02:49:03;;;;;;;20.30;17.10;;;19.70;99.90;;;;;;5107437;28;20519;-64
2021/07/17 02:51:31;;;;;;;19.10;17.30;;;19.70;99.90;;;;;;5106727;28;20413;-64
2021/07/17 02:53:57;;;;;;;17.43;15.70;;;19.80;99.90;;;;;;5105660;28;20452;-63
2021/07/17 02:56:24;;;;;;;21.50;17.33;;;19.90;99.90;;;;;;5083284;28;20431;-63
2021/07/17 02:58:51;;;;;;;20.40;17.43;;;20.00;99.90;;;;;;5103925;28;20450;-63
2021/07/17 03:01:18;;;;;;;20.57;16.83;;;19.90;99.90;;;;;;5105624;28;20720;-63
2021/07/17 03:03:46;;;;;;;19.70;17.70;;;20.00;99.90;;;;;;5105165;28;20450;-63
2021/07/17 03:06:14;;;;;;;18.77;16.87;;;20.20;99.90;;;;;;5081770;28;20406;-63
2021/07/17 03:08:41;;;;;;;20.30;15.47;;;20.20;99.90;;;;;;5111280;28;20795;-64
2021/07/17 03:11:08;;;;;;;18.17;16.20;;;20.30;99.90;;;;;;5101054;28;20487;-63
2021/07/17 03:13:35;;;;;;;20.30;16.23;;;20.40;99.90;;;;;;5112010;28;20432;-63
2021/07/17 03:16:02;;;;;;;20.37;17.87;;;20.40;99.90;;;;;;5103268;28;20671;-63
2021/07/17 03:18:30;;;;;;;20.20;18.10;;;20.50;99.90;;;;;;5105123;28;20473;-62
2021/07/17 03:20:57;;;;;;;17.83;16.10;;;20.50;99.90;;;;;;5103429;28;20414;-62
2021/07/17 03:23:24;;;;;;;18.70;16.80;;;20.60;99.90;;;;;;5100247;28;20418;-63
2021/07/17 03:25:51;;;;;;;18.47;16.77;;;20.60;99.90;;;;;;5099761;28;20449;-63
2021/07/17 03:28:18;;;;;;;20.70;18.50;;;20.60;99.90;;;;;;5101910;28;20502;-62
2021/07/17 03:30:46;;;;;;;23.30;16.40;;;20.80;99.90;;;;;;5103747;28;20444;-62
2021/07/17 03:33:12;;;;;;;18.23;16.53;;;20.90;99.90;;;;;;5108543;28;20466;-62
2021/07/17 03:35:39;;;;;;;19.83;17.67;;;21.20;99.90;;;;;;5100080;28;20406;-62
2021/07/17 03:38:06;;;;;;;22.13;19.83;;;21.40;99.90;;;;;;5100711;28;20427;-62
2021/07/17 03:40:33;;;;;;;19.90;17.80;;;21.70;99.90;;;;;;5101025;28;20767;-63
2021/07/17 03:43:01;;;;;;;19.57;17.07;;;21.60;99.90;;;;;;5104852;28;20461;-63
2021/07/17 03:45:28;;;;;;;19.83;17.47;;;21.80;99.90;;;;;;5102420;28;20439;-64
2021/07/17 03:47:55;;;;;;;24.30;19.50;;;22.00;99.90;;;;;;5105762;28;20452;-63
2021/07/17 03:50:23;;;;;;;22.83;20.53;;;22.30;99.90;;;;;;5101319;28;20438;-63
2021/07/17 03:52:50;;;;;;;22.80;20.40;;;22.20;99.90;;;;;;5105716;28;20729;-63
2021/07/17 03:55:17;;;;;;;21.80;19.57;;;22.20;99.90;;;;;;5103383;28;20424;-62
2021/07/17 03:57:44;;;;;;;21.70;18.80;;;22.10;99.90;;;;;;5106276;28;20418;-62
2021/07/17 04:00:12;;;;;;;20.83;17.13;;;22.00;99.90;;;;;;5100573;28;20415;-63
2021/07/17 04:02:42;;;;;;;25.63;19.20;;;22.30;99.90;;;;;;5103961;28;20444;-62
2021/07/17 04:05:12;;;;;;;18.27;16.53;;;22.30;99.90;;;;;;5103176;28;20562;-63
2021/07/17 04:07:40;;;;;;;18.10;16.20;;;22.60;99.90;;;;;;5103997;28;20527;-62
2021/07/17 04:10:09;;;;;;;17.90;16.20;;;22.80;99.90;;;;;;5105649;28;20443;-63
2021/07/17 04:12:36;;;;;;;18.67;16.63;;;23.00;99.90;;;;;;5102762;28;20764;-63
2021/07/17 04:15:05;;;;;;;24.60;18.37;;;23.20;99.90;;;;;;5103178;28;20421;-62
2021/07/17 04:17:32;;;;;;;17.30;15.60;;;23.00;99.90;;;;;;5105119;28;20667;-63
2021/07/17 04:19:59;;;;;;;17.43;15.60;;;23.10;99.90;;;;;;5106406;28;20453;-64
2021/07/17 04:22:26;;;;;;;20.20;15.93;;;23.00;99.90;;;;;;5103217;28;20420;-62
2021/07/17 04:24:53;;;;;;;18.80;16.87;;;22.80;99.90;;;;;;5099587;28;20406;-63
2021/07/17 04:27:20;;;;;;;17.00;15.27;;;22.70;99.90;;;;;;5103271;28;20824;-63
2021/07/17 04:29:48;;;;;;;17.57;15.63;;;22.50;99.90;;;;;;5098682;28;20505;-63
2021/07/17 04:32:15;;;;;;;17.17;15.43;;;22.40;99.90;;;;;;5104772;28;20412;-63
2021/07/17 04:34:42;;;;;;;19.70;16.63;;;22.30;99.90;;;;;;5104291;28;20425;-63
2021/07/17 04:37:17;;;;;;;16.60;14.90;;;22.20;99.90;;;;;;5102998;28;20510;-63
2021/07/17 04:39:48;;;;;;;19.20;14.97;;;22.30;99.90;;;;;;5098702;28;21087;-63
2021/07/17 04:42:16;;;;;;;20.80;16.90;;;22.40;99.90;;;;;;5101829;28;20506;-62
2021/07/17 04:44:43;;;;;;;19.13;16.27;;;22.50;99.90;;;;;;5105709;28;20416;-63
2021/07/17 04:47:10;;;;;;;19.20;17.43;;;22.50;99.90;;;;;;5101040;28;20420;-63
2021/07/17 04:49:37;;;;;;;19.47;15.80;;;22.50;99.90;;;;;;5102829;28;20512;-62
2021/07/17 04:52:05;;;;;;;17.30;14.80;;;22.60;99.90;;;;;;5098650;28;20465;-62
2021/07/17 04:54:32;;;;;;;23.00;15.60;;;22.70;99.90;;;;;;5102186;28;20920;-62
2021/07/17 04:56:59;;;;;;;17.40;15.70;;;22.80;99.90;;;;;;5105317;28;20551;-63
2021/07/17 04:59:26;;;;;;;17.20;15.40;;;22.90;99.90;;;;;;5104864;28;20435;-62
2021/07/17 05:01:53;;;;;;;17.83;15.10;;;23.00;99.90;;;;;;5105083;28;20442;-62
2021/07/17 05:04:21;;;;;;;18.27;14.90;;;23.20;99.90;;;;;;5103847;28;20480;-62
2021/07/17 05:06:48;;;;;;;18.20;16.40;;;23.70;99.90;;;;;;5108048;28;20447;-62
2021/07/17 05:09:15;;;;;;;15.97;14.40;;;23.80;99.90;;;;;;5100302;28;20453;-62
2021/07/17 05:11:42;;;;;;;15.60;13.20;;;24.10;99.90;;;;;;5103333;28;20857;-63
2021/07/17 05:14:09;;;;;;;16.10;14.07;;;24.20;99.90;;;;;;5101575;28;20454;-64
2021/07/17 05:16:36;;;;;;;17.00;14.37;;;24.30;99.90;;;;;;5102144;28;20433;-62
2021/07/17 05:19:03;;;;;;;14.23;12.77;;;24.70;99.90;;;;;;5101838;28;20449;-63
2021/07/17 05:21:30;;;;;;;14.90;13.50;;;24.70;99.90;;;;;;5105092;28;20402;-63
2021/07/17 05:23:57;;;;;;;14.40;13.00;;;24.80;99.90;;;;;;5086017;28;20413;-64
2021/07/17 05:26:24;;;;;;;13.43;12.10;;;24.80;99.90;;;;;;5100733;28;20431;-64
2021/07/17 05:28:51;;;;;;;13.70;12.30;;;24.80;99.90;;;;;;5097781;28;20457;-64
2021/07/17 05:31:19;;;;;;;15.10;13.67;;;24.80;99.90;;;;;;5098829;28;20629;-63
2021/07/17 05:33:46;;;;;;;15.47;12.90;;;24.50;99.90;;;;;;5101662;28;20443;-63
2021/07/17 05:36:13;;;;;;;15.40;12.03;;;24.20;99.90;;;;;;5101520;28;20420;-64
2021/07/17 05:38:40;;;;;;;14.47;13.07;;;24.30;99.90;;;;;;5105370;28;20443;-64
2021/07/17 05:41:07;;;;;;;18.07;13.43;;;24.50;99.90;;;;;;5104127;28;20491;-63
2021/07/17 05:43:35;;;;;;;19.83;12.07;;;24.80;99.90;;;;;;5103209;28;20439;-63
2021/07/17 05:46:02;;;;;;;14.67;13.20;;;24.80;99.90;;;;;;5103431;28;20442;-64
2021/07/17 05:48:29;;;;;;;14.90;12.40;;;25.10;99.90;;;;;;5103649;28;20523;-62
2021/07/17 05:50:56;;;;;;;13.03;11.67;;;25.30;99.90;;;;;;5103701;28;20478;-63
2021/07/17 05:53:23;;;;;;;13.93;12.53;;;25.20;99.90;;;;;;5104206;28;20440;-64
2021/07/17 05:55:50;;;;;;;13.53;12.23;;;25.10;99.90;;;;;;5106776;28;20503;-63
2021/07/17 05:58:17;;;;;;;13.53;12.17;;;24.70;99.90;;;;;;5107897;28;20662;-64
2021/07/17 06:00:45;;;;;;;14.37;12.90;;;24.40;99.90;;;;;;5105340;28;20418;-63
2021/07/17 06:03:12;;;;;;;12.27;11.13;;;24.10;99.90;;;;;;5109766;28;20458;-63
2021/07/17 06:05:39;;;;;;;12.60;11.30;;;23.90;99.90;;;;;;5114228;28;20438;-63
2021/07/17 06:08:06;;;;;;;13.27;11.97;;;24.20;99.90;;;;;;5101662;28;20488;-63
2021/07/17 06:10:33;;;;;;;12.10;10.90;;;24.20;99.90;;;;;;5109944;28;20769;-64
2021/07/17 06:13:00;;;;;;;12.67;10.30;;;24.10;99.90;;;;;;5103693;28;20670;-63
2021/07/17 06:15:27;;;;;;;17.10;12.60;;;24.10;99.90;;;;;;5102342;28;20413;-64
2021/07/17 06:17:54;;;;;;;15.20;12.17;;;24.30;99.90;;;;;;5101237;28;20439;-64
2021/07/17 06:20:22;;;;;;;17.27;12.90;;;24.30;99.90;;;;;;5109648;28;20446;-63
2021/07/17 06:22:49;;;;;;;13.40;12.17;;;24.40;99.90;;;;;;5083303;28;20413;-63
2021/07/17 06:25:16;;;;;;;12.57;11.37;;;24.40;99.90;;;;;;5110636;28;20431;-63
2021/07/17 06:27:43;;;;;;;13.37;11.80;;;24.30;99.90;;;;;;5106207;28;20463;-63
2021/07/17 06:30:11;;;;;;;11.20;9.57;;;24.60;99.90;;;;;;5101931;28;20543;-65
2021/07/17 06:32:38;;;;;;;17.63;12.27;;;24.70;99.90;;;;;;5113461;28;20602;-63
2021/07/17 06:35:06;;;;;;;12.80;11.67;;;25.00;99.90;;;;;;5105400;28;20485;-63
2021/07/17 06:37:33;;;;;;;11.40;10.33;;;25.50;99.90;;;;;;5105073;28;20496;-63
2021/07/17 06:40:00;;;;;;;14.40;10.23;;;25.70;99.90;;;;;;5103546;28;20491;-64
2021/07/17 06:42:27;;;;;;;13.13;11.63;;;26.00;99.90;;;;;;5089786;28;20538;-63
2021/07/17 06:44:54;;;;;;;13.30;11.90;;;26.20;99.90;;;;;;5104166;28;20616;-63
2021/07/17 06:47:21;;;;;;;12.70;11.30;;;26.00;99.90;;;;;;5104910;28;20507;-64
2021/07/17 06:49:48;;;;;;;12.13;10.60;;;26.10;99.90;;;;;;5104281;28;20476;-64
2021/07/17 06:52:15;;;;;;;13.57;12.33;;;26.10;99.90;;;;;;5105757;28;20443;-64
2021/07/17 06:54:42;;;;;;;12.07;10.20;;;26.10;99.90;;;;;;5103408;28;20611;-64
2021/07/17 06:57:09;;;;;;;13.20;10.37;;;26.40;99.90;;;;;;5103820;28;20482;-64
2021/07/17 06:59:36;;;;;;;12.87;10.80;;;26.30;99.90;;;;;;5108509;28;20446;-64
2021/07/17 07:02:03;;;;;;;11.37;10.23;;;25.60;99.90;;;;;;5108232;28;20479;-65
2021/07/17 07:04:32;;;;;;;12.93;10.93;;;25.20;99.90;;;;;;5109567;28;20640;-63
2021/07/17 07:06:59;;;;;;;12.27;11.17;;;25.20;99.90;;;;;;5108803;28;20439;-63
2021/07/17 07:09:26;;;;;;;12.23;11.20;;;25.60;99.90;;;;;;5105544;28;20703;-63
2021/07/17 07:11:53;;;;;;;14.20;11.27;;;26.00;99.90;;;;;;5105181;28;20517;-63
2021/07/17 07:14:21;;;;;;;11.77;10.73;;;26.30;99.90;;;;;;5103365;28;20441;-64
2021/07/17 07:16:49;;;;;;;13.07;10.67;;;26.60;99.90;;;;;;5102628;28;20447;-65
2021/07/17 07:19:16;;;;;;;13.67;10.03;;;27.40;99.90;;;;;;5101981;28;20451;-64
2021/07/17 07:21:43;;;;;;;15.00;10.83;;;28.10;99.90;;;;;;5103329;28;20435;-64
2021/07/17 07:24:10;;;;;;;11.83;10.63;;;29.10;99.90;;;;;;5103182;28;20439;-63
2021/07/17 07:26:37;;;;;;;10.77;9.77;;;31.30;99.90;;;;;;5102584;28;20451;-65
2021/07/17 07:29:05;;;;;;;12.50;11.20;;;32.50;99.90;;;;;;5105324;28;20496;-64
2021/07/17 07:31:32;;;;;;;11.40;10.30;;;32.50;99.90;;;;;;5104992;28;20481;-64
2021/07/17 07:33:59;;;;;;;11.90;10.10;;;31.80;99.90;;;;;;5107472;28;20511;-64
2021/07/17 07:36:26;;;;;;;11.50;10.57;;;31.30;99.90;;;;;;5107015;28;20443;-64
2021/07/17 07:38:53;;;;;;;10.70;9.90;;;30.90;99.90;;;;;;5106541;28;20598;-64
2021/07/17 07:41:20;;;;;;;10.03;9.30;;;30.20;99.90;;;;;;5103702;28;20439;-64
2021/07/17 07:43:47;;;;;;;11.73;10.63;;;29.70;99.90;;;;;;5085780;28;20446;-64
2021/07/17 07:46:15;;;;;;;11.63;10.53;;;29.10;99.90;;;;;;5099312;28;20488;-65
2021/07/17 07:48:42;;;;;;;12.50;11.30;;;28.70;99.90;;;;;;5101488;28;20520;-65
2021/07/17 07:51:10;;;;;;;10.60;9.70;;;29.20;99.90;;;;;;5104876;28;20825;-63
2021/07/17 07:53:38;;;;;;;11.50;10.40;;;29.50;99.90;;;;;;5104156;28;20446;-64
2021/07/17 07:56:08;;;;;;;11.07;10.17;;;29.80;99.90;;;;;;5104226;28;20793;-64
2021/07/17 07:58:35;;;;;;;9.00;8.40;;;30.10;99.90;;;;;;5099786;28;20439;-65
2021/07/17 08:01:02;;;;;;;9.93;9.13;;;30.10;99.90;;;;;;5103203;28;20480;-63
2021/07/17 08:03:29;;;;;;;9.83;9.13;;;29.90;99.90;;;;;;5105084;28;20511;-65
2021/07/17 08:05:56;;;;;;;10.13;9.30;;;29.80;99.90;;;;;;5100700;28;20474;-66
2021/07/17 08:08:23;;;;;;;10.10;9.20;;;29.30;99.90;;;;;;5102398;28;20435;-63
2021/07/17 08:10:51;;;;;;;9.03;8.33;;;29.70;99.90;;;;;;5101105;28;20487;-64
2021/07/17 08:13:18;;;;;;;10.53;9.63;;;31.30;99.90;;;;;;5104306;28;20489;-64
2021/07/17 08:15:50;;;;;;;9.00;8.40;;;32.40;99.90;;;;;;5102257;28;20477;-64
2021/07/17 08:18:19;;;;;;;10.37;9.67;;;34.70;96.90;;;;;;5100568;28;20435;-64
2021/07/17 08:20:46;;;;;;;10.70;9.90;;;37.50;91.60;;;;;;5098413;28;20449;-65
2021/07/17 08:23:14;;;;;;;11.60;10.60;;;39.80;83.90;;;;;;5098515;28;20442;-64
2021/07/17 08:25:41;;;;;;;12.73;11.70;;;39.90;79.40;;;;;;5102880;28;20436;-64
2021/07/17 08:28:08;;;;;;;11.50;10.43;;;37.00;85.20;;;;;;5100679;28;20450;-64
2021/07/17 08:30:37;;;;;;;10.67;9.77;;;34.90;90.70;;;;;;5100549;28;20475;-64
2021/07/17 08:33:04;;;;;;;9.93;9.33;;;33.70;92.60;;;;;;5098203;28;20446;-66
2021/07/17 08:35:32;;;;;;;11.23;10.47;;;33.30;93.20;;;;;;5099300;28;20438;-65
2021/07/17 08:37:59;;;;;;;11.23;10.43;;;34.30;92.10;;;;;;5097367;28;20435;-65
2021/07/17 08:40:27;;;;;;;10.87;9.83;;;35.60;90.20;;;;;;5100527;28;20447;-66
2021/07/17 08:42:55;;;;;;;11.73;10.43;;;34.90;90.60;;;;;;5096225;28;20439;-67
2021/07/17 08:45:23;;;;;;;12.73;11.63;;;33.30;92.60;;;;;;5096630;28;20447;-66
2021/07/17 08:47:52;;;;;;;10.90;10.23;;;33.10;92.70;;;;;;5098506;28;20497;-66
2021/07/17 08:50:24;;;;;;;10.43;9.83;;;33.20;93.00;;;;;;5103752;28;20531;-65
2021/07/17 08:52:58;;;;;;;11.07;10.37;;;33.90;92.50;;;;;;5093946;28;20450;-64
2021/07/17 08:55:29;;;;;;;11.40;10.60;;;35.20;90.80;;;;;;5097442;28;20439;-65
2021/07/17 08:57:56;;;;;;;10.83;10.13;;;36.40;87.50;;;;;;5102092;28;20700;-66
2021/07/17 09:00:33;;;;;;;11.10;10.30;;;35.60;88.30;;;;;;5097913;28;20743;-66
2021/07/17 09:03:06;;;;;;;10.43;9.83;;;34.60;90.30;;;;;;5094914;28;20492;-66
2021/07/17 09:05:42;;;;;;;10.37;9.67;;;35.60;88.30;;;;;;5099936;28;20705;-66
2021/07/17 09:08:10;;;;;;;10.43;9.63;;;37.50;81.50;;;;;;5094520;28;20771;-65
2021/07/17 09:10:38;;;;;;;12.43;11.73;;;39.60;75.30;;;;;;5092782;28;20482;-65
2021/07/17 09:13:14;;;;;;;12.23;11.40;;;40.20;72.80;;;;;;5098153;28;20466;-64
2021/07/17 09:16:07;;;;;;;10.40;9.63;;;41.00;69.40;;;;;;5097612;28;20441;-64
2021/07/17 09:18:48;;;;;;;9.33;8.67;;;38.10;73.70;;;;;;5098564;28;20526;-65
2021/07/17 09:21:25;;;;;;;9.80;9.10;;;35.60;80.00;;;;;;5098610;28;20472;-65
2021/07/17 09:23:55;;;;;;;11.63;10.70;;;34.50;85.10;;;;;;5100142;28;20568;-66
2021/07/17 09:26:27;;;;;;;11.67;11.00;;;36.30;80.10;;;;;;5081720;28;20511;-67
2021/07/17 09:29:00;;;;;;;10.87;10.20;;;37.60;77.50;;;;;;5083422;28;20439;-65
2021/07/17 09:31:32;;;;;;;10.47;9.77;;;39.50;71.50;;;;;;5105658;28;20430;-65
2021/07/17 09:34:09;;;;;;;11.13;10.33;;;39.70;71.00;;;;;;5101559;28;20506;-67
2021/07/17 09:37:10;;;;;;;10.33;9.63;;;38.60;70.90;;;;;;5099223;28;20766;-67
2021/07/17 09:39:44;;;;;;;9.20;8.37;;;35.70;77.20;;;;;;5097867;28;20458;-66
2021/07/17 09:42:16;;;;;;;10.73;9.80;;;33.20;85.40;;;;;;5102107;28;20427;-65
2021/07/17 09:44:51;;;;;;;11.10;10.30;;;32.00;90.30;;;;;;5103725;28;20488;-66
2021/07/17 09:47:26;;;;;;;10.87;9.97;;;31.60;91.50;;;;;;5103807;28;20675;-68
2021/07/17 09:50:16;;;;;;;11.43;10.43;;;31.60;92.30;;;;;;5101515;28;20465;-67
2021/07/17 09:52:48;;;;;;;10.43;9.60;;;31.30;92.70;;;;;;5109379;28;20706;-66
2021/07/17 09:55:18;;;;;;;10.70;9.87;;;31.00;93.60;;;;;;5114934;28;20444;-66
2021/07/17 09:57:47;;;;;;;10.07;9.40;;;30.40;94.50;;;;;;5117017;28;20461;-66
2021/07/17 10:00:25;;;;;;;10.90;10.00;;;30.10;95.40;;;;;;5109130;28;20442;-66
2021/07/17 10:02:56;;;;;;;10.90;9.90;;;29.70;94.90;;;;;;5100643;28;20466;-66
2021/07/17 10:05:38;;;;;;;9.27;8.67;;;29.20;96.40;;;;;;5100578;28;20508;-66
2021/07/17 10:08:14;;;;;;;10.10;9.20;;;29.60;96.20;;;;;;5091866;28;20455;-65
2021/07/17 10:10:46;;;;;;;9.47;8.67;;;29.30;95.60;;;;;;5100590;28;20730;-67
2021/07/17 10:13:28;;;;;;;8.23;7.73;;;28.90;96.80;;;;;;5078831;28;20565;-66
2021/07/17 10:15:59;;;;;;;8.70;8.20;;;28.40;97.40;;;;;;5092011;28;20500;-67
2021/07/17 10:18:30;;;;;;;13.20;9.20;;;28.30;97.70;;;;;;5091295;28;20473;-66
2021/07/17 10:21:01;;;;;;;9.47;8.67;;;28.40;98.30;;;;;;5100896;28;20447;-65
2021/07/17 10:23:30;;;;;;;8.87;8.13;;;28.40;97.90;;;;;;5088116;28;20521;-66
2021/07/17 10:26:00;;;;;;;8.60;7.90;;;28.40;98.30;;;;;;5100989;28;20469;-67
2021/07/17 10:28:33;;;;;;;10.57;9.50;;;28.20;98.80;;;;;;5107573;28;20500;-66
2021/07/17 10:31:07;;;;;;;8.13;7.53;;;28.20;98.60;;;;;;5103827;28;20797;-68
2021/07/17 10:33:38;;;;;;;8.87;8.27;;;28.50;98.30;;;;;;5109861;28;20434;-67
2021/07/17 10:36:11;;;;;;;9.47;8.77;;;28.40;97.70;;;;;;5103439;28;20496;-66
2021/07/17 10:38:43;;;;;;;8.83;8.13;;;28.70;98.30;;;;;;5105467;28;20835;-67
2021/07/17 10:41:15;;;;;;;8.47;7.97;;;29.60;97.00;;;;;;5093221;28;20436;-67
2021/07/17 10:43:53;;;;;;;8.40;7.83;;;30.20;96.20;;;;;;5093686;28;20415;-67
2021/07/17 10:46:40;;;;;;;8.33;7.73;;;30.80;95.20;;;;;;5113192;28;20822;-66
2021/07/17 10:49:10;;;;;;;9.90;9.20;;;31.10;95.10;;;;;;5099480;28;20671;-66
2021/07/17 10:51:50;;;;;;;9.33;8.67;;;31.00;94.40;;;;;;5111209;28;20433;-68
2021/07/17 10:54:28;;;;;;;9.30;8.33;;;30.50;94.60;;;;;;5114305;28;20442;-67
2021/07/17 10:56:56;;;;;;;8.97;8.37;;;30.20;95.50;;;;;;5108535;28;20804;-68
2021/07/17 10:59:23;;;;;;;9.37;8.57;;;30.20;95.40;;;;;;5109647;28;20442;-66
2021/07/17 11:02:00;;;;;;;8.50;7.90;;;30.20;95.40;;;;;;5115529;28;20628;-68
2021/07/17 11:04:46;;;;;;;8.30;7.70;;;30.30;95.90;;;;;;5111133;28;20433;-67
2021/07/17 11:07:16;;;;;;;10.00;9.10;;;30.30;96.50;;;;;;5101170;28;20513;-67
2021/07/17 11:09:57;;;;;;;9.77;9.07;;;30.20;96.80;;;;;;5089853;28;20542;-66
2021/07/17 11:12:29;;;;;;;10.97;9.87;;;30.20;96.40;;;;;;5103015;28;20476;-66
2021/07/17 11:15:20;;;;;;;9.90;9.23;;;30.20;97.00;;;;;;5105957;28;20431;-66
2021/07/17 11:17:49;;;;;;;10.03;8.97;;;29.80;96.70;;;;;;5074953;28;20453;-65
2021/07/17 11:20:17;;;;;;;9.77;9.17;;;29.30;97.30;;;;;;5100904;28;20508;-66
2021/07/17 11:22:46;;;;;;;9.07;8.43;;;29.40;97.20;;;;;;5105265;28;20496;-66
2021/07/17 11:25:16;;;;;;;9.23;8.63;;;29.80;97.00;;;;;;5096220;28;20478;-68
2021/07/17 11:27:43;;;;;;;9.17;8.43;;;29.90;96.50;;;;;;5106107;28;20443;-65
2021/07/17 11:30:16;;;;;;;10.13;9.47;;;29.90;96.80;;;;;;5106516;28;20453;-65
2021/07/17 11:33:05;;;;;;;8.90;8.30;;;29.80;96.90;;;;;;5104087;28;21012;-66
2021/07/17 11:35:38;;;;;;;15.70;8.77;;;29.70;97.20;;;;;;5104101;28;20735;-67
2021/07/17 11:38:06;;;;;;;9.63;8.63;;;29.30;97.70;;;;;;5104210;28;20484;-67
2021/07/17 11:40:36;;;;;;;10.17;9.37;;;29.10;98.00;;;;;;5080912;28;20504;-67
2021/07/17 11:43:08;;;;;;;8.13;7.53;;;28.80;98.20;;;;;;5099184;28;20443;-66
2021/07/17 11:45:37;;;;;;;9.93;8.80;;;28.40;98.30;;;;;;5071455;28;20621;-67
2021/07/17 11:48:10;;;;;;;8.53;7.83;;;28.50;99.00;;;;;;5100161;28;20476;-65
2021/07/17 11:50:38;;;;;;;8.60;8.00;;;28.80;97.90;;;;;;5099017;28;20524;-65
2021/07/17 11:53:18;;;;;;;10.40;9.40;;;29.40;97.50;;;;;;5098103;28;20819;-67
2021/07/17 11:56:05;;;;;;;9.90;9.10;;;29.90;97.20;;;;;;5097339;28;20500;-66
2021/07/17 11:58:32;;;;;;;10.60;9.67;;;30.10;97.30;;;;;;5096083;28;20438;-68
2021/07/17 12:01:00;;;;;;;10.23;9.20;;;29.70;96.50;;;;;;5094352;28;20524;-67
2021/07/17 12:03:28;;;;;;;8.80;8.20;;;29.20;97.70;;;;;;5099189;28;20439;-67
2021/07/17 12:05:55;;;;;;;9.00;8.20;;;29.30;97.40;;;;;;5097122;28;20753;-67
2021/07/17 12:08:22;;;;;;;8.70;8.10;;;29.00;98.20;;;;;;5100453;28;20465;-68
2021/07/17 12:10:49;;;;;;;9.80;8.87;;;29.10;98.50;;;;;;5106175;28;20977;-68
2021/07/17 12:13:20;;;;;;;9.87;9.03;;;29.20;97.50;;;;;;5078244;28;20513;-68
2021/07/17 12:15:48;;;;;;;9.77;9.13;;;28.90;97.30;;;;;;5103196;28;20449;-66
2021/07/17 12:18:18;;;;;;;9.07;8.27;;;28.90;98.20;;;;;;5098259;28;20436;-67
2021/07/17 12:20:50;;;;;;;9.70;8.80;;;29.00;97.40;;;;;;5098611;28;20465;-66
2021/07/17 12:23:18;;;;;;;9.60;8.63;;;29.40;97.00;;;;;;5098477;28;20437;-66
2021/07/17 12:25:53;;;;;;;10.30;9.50;;;29.50;95.60;;;;;;5094176;28;20857;-69
2021/07/17 12:28:27;;;;;;;8.93;8.13;;;29.70;96.10;;;;;;5099039;28;20648;-67
2021/07/17 12:30:57;;;;;;;9.87;9.17;;;29.90;96.50;;;;;;5101806;28;20478;-66
2021/07/17 12:33:42;;;;;;;10.27;9.30;;;30.40;95.70;;;;;;5099528;28;20423;-68
2021/07/17 12:36:18;;;;;;;9.70;8.90;;;30.60;94.60;;;;;;5098797;28;20423;-69
2021/07/17 12:38:51;;;;;;;8.53;7.90;;;30.50;95.00;;;;;;5105108;28;20442;-66
2021/07/17 12:41:22;;;;;;;9.50;8.90;;;30.30;94.70;;;;;;5102697;28;20431;-66